Pine Valley, California
Current Conditions -  °F | °C
As of 3:53 AM on Sunday 25 Jan 2015 (Local Time) from KRNM Reporting Station
Clear Clear  
Wind Chill: 64°   Ceiling: Unl
Heat Index: 64°   Visibility: 10mi
Dew Point: 15°   Wind: 0mph
Humidity: 15%   Direction: NA
Pressure: 30.03"   Gusts: NA
Location:  32.86°N, 116.5°W
Report Text: KRNM 251153Z AUTO 00000KT 10SM CLR 18/M09 A3003 RMK AO2 SLP157 T01781094 10189 20111 55003 $
Loading
Personal Weather Stations






























Interactive Weather Map New forecast layout! Learn more

10-Day Weather Forecast

Advertisements
Track Severe Weather on mobile